<?xml version="1.0" encoding="UTF-8" standalone="no" ?>
<gpx xmlns="http://www.topografix.com/GPX/1/1" xmlns:xsi="http://www.w3.org/2001/XMLSchema-instance" xsi:schemaLocation="http://www.topografix.com/GPX/1/1 http://www.topografix.com/GPX/1/1/gpx.xsd" version="1.1" creator="VisuGPX - https://www.visugpx.com">
  <metadata>
    <name>2023-04-20-46-Montgesty-Labastidette</name>
    <desc><![CDATA[Randonnée de 11,2 km pour 265 m de dénivelé positif. Ce jolie circuit vous emmènera jusqu'à la bastidette avec un peu de goudron et par des chemins bordés de murs de pierres avec quelques gariottes et deux châteaux à voir. Une bonne petite côte sera sur votre passage pour finir le circuit]]></desc>
  </metadata>
  <trk>
    <name><![CDATA[--Montgesty-- OR-5775972:Montgesty-Labastidette]]></name>
    <trkseg>
      <trkpt lat="44.57953" lon="1.29615">
        <ele>286</ele>
        <time>2016-03-03T22:29:11Z</time>
      </trkpt>
      <trkpt lat="44.57971" lon="1.29521">
        <ele>284</ele>
        <time>2016-03-03T22:31:11Z</time>
      </trkpt>
      <trkpt lat="44.57923" lon="1.29412">
        <ele>278</ele>
        <time>2016-03-03T22:33:11Z</time>
      </trkpt>
      <trkpt lat="44.57916" lon="1.29344">
        <ele>277</ele>
        <time>2016-03-03T22:35:11Z</time>
      </trkpt>
      <trkpt lat="44.57847" lon="1.29387">
        <ele>274</ele>
        <time>2016-03-03T22:37:11Z</time>
      </trkpt>
      <trkpt lat="44.57779" lon="1.29376">
        <ele>266</ele>
        <time>2016-03-03T22:39:11Z</time>
      </trkpt>
      <trkpt lat="44.57744" lon="1.2929">
        <ele>262</ele>
        <time>2016-03-03T22:41:11Z</time>
      </trkpt>
      <trkpt lat="44.57708" lon="1.29261">
        <ele>260</ele>
        <time>2016-03-03T22:43:11Z</time>
      </trkpt>
      <trkpt lat="44.57639" lon="1.29208">
        <ele>258</ele>
        <time>2016-03-03T22:45:11Z</time>
      </trkpt>
      <trkpt lat="44.57569" lon="1.29148">
        <ele>254</ele>
        <time>2016-03-03T22:47:11Z</time>
      </trkpt>
      <trkpt lat="44.57522" lon="1.29113">
        <ele>249</ele>
        <time>2016-03-03T22:49:11Z</time>
      </trkpt>
      <trkpt lat="44.57497" lon="1.29085">
        <ele>246</ele>
        <time>2016-03-03T22:51:11Z</time>
      </trkpt>
      <trkpt lat="44.57465" lon="1.29086">
        <ele>244</ele>
        <time>2016-03-03T22:53:11Z</time>
      </trkpt>
      <trkpt lat="44.5743" lon="1.29065">
        <ele>244</ele>
        <time>2016-03-03T22:55:11Z</time>
      </trkpt>
      <trkpt lat="44.57465" lon="1.28995">
        <ele>247</ele>
        <time>2016-03-03T22:57:11Z</time>
      </trkpt>
      <trkpt lat="44.57469" lon="1.2891">
        <ele>252</ele>
        <time>2016-03-03T22:59:11Z</time>
      </trkpt>
      <trkpt lat="44.57478" lon="1.28863">
        <ele>255</ele>
        <time>2016-03-03T23:01:11Z</time>
      </trkpt>
      <trkpt lat="44.57492" lon="1.28814">
        <ele>258</ele>
        <time>2016-03-03T23:03:11Z</time>
      </trkpt>
      <trkpt lat="44.57548" lon="1.28704">
        <ele>264</ele>
        <time>2016-03-03T23:05:11Z</time>
      </trkpt>
      <trkpt lat="44.57548" lon="1.28661">
        <ele>267</ele>
        <time>2016-03-03T23:07:11Z</time>
      </trkpt>
      <trkpt lat="44.57506" lon="1.28614">
        <ele>268</ele>
        <time>2016-03-03T23:09:11Z</time>
      </trkpt>
      <trkpt lat="44.57465" lon="1.28553">
        <ele>269</ele>
        <time>2016-03-03T23:11:11Z</time>
      </trkpt>
      <trkpt lat="44.57411" lon="1.28506">
        <ele>268</ele>
        <time>2016-03-03T23:13:11Z</time>
      </trkpt>
      <trkpt lat="44.57372" lon="1.28484">
        <ele>268</ele>
        <time>2016-03-03T23:15:11Z</time>
      </trkpt>
      <trkpt lat="44.57253" lon="1.28486">
        <ele>260</ele>
        <time>2016-03-03T23:17:11Z</time>
      </trkpt>
      <trkpt lat="44.5716" lon="1.28488">
        <ele>258</ele>
        <time>2016-03-03T23:19:11Z</time>
      </trkpt>
      <trkpt lat="44.57069" lon="1.28487">
        <ele>255</ele>
        <time>2016-03-03T23:21:11Z</time>
      </trkpt>
      <trkpt lat="44.57024" lon="1.28375">
        <ele>250</ele>
        <time>2016-03-03T23:23:11Z</time>
      </trkpt>
      <trkpt lat="44.56901" lon="1.2815">
        <ele>232</ele>
        <time>2016-03-03T23:25:11Z</time>
      </trkpt>
      <trkpt lat="44.56856" lon="1.28081">
        <ele>224</ele>
        <time>2016-03-03T23:27:11Z</time>
      </trkpt>
      <trkpt lat="44.56733" lon="1.27988">
        <ele>222</ele>
        <time>2016-03-03T23:29:11Z</time>
      </trkpt>
      <trkpt lat="44.56662" lon="1.27918">
        <ele>225</ele>
        <time>2016-03-03T23:31:11Z</time>
      </trkpt>
      <trkpt lat="44.56553" lon="1.27845">
        <ele>230</ele>
        <time>2016-03-03T23:33:11Z</time>
      </trkpt>
      <trkpt lat="44.56486" lon="1.27742">
        <ele>234</ele>
        <time>2016-03-03T23:35:11Z</time>
      </trkpt>
      <trkpt lat="44.56407" lon="1.27647">
        <ele>234</ele>
        <time>2016-03-03T23:37:11Z</time>
      </trkpt>
      <trkpt lat="44.56341" lon="1.27647">
        <ele>233</ele>
        <time>2016-03-03T23:39:11Z</time>
      </trkpt>
      <trkpt lat="44.56291" lon="1.2763">
        <ele>236</ele>
        <time>2016-03-03T23:41:11Z</time>
      </trkpt>
      <trkpt lat="44.56205" lon="1.27623">
        <ele>241</ele>
        <time>2016-03-03T23:43:11Z</time>
      </trkpt>
      <trkpt lat="44.5612" lon="1.27638">
        <ele>246</ele>
        <time>2016-03-03T23:45:11Z</time>
      </trkpt>
      <trkpt lat="44.5607" lon="1.27603">
        <ele>248</ele>
        <time>2016-03-03T23:47:11Z</time>
      </trkpt>
      <trkpt lat="44.56032" lon="1.27578">
        <ele>250</ele>
        <time>2016-03-03T23:49:11Z</time>
      </trkpt>
      <trkpt lat="44.5601" lon="1.27562">
        <ele>251</ele>
        <time>2016-03-03T23:51:11Z</time>
      </trkpt>
      <trkpt lat="44.5595" lon="1.27531">
        <ele>251</ele>
        <time>2016-03-03T23:53:11Z</time>
      </trkpt>
      <trkpt lat="44.55801" lon="1.27519">
        <ele>257</ele>
        <time>2016-03-03T23:55:11Z</time>
      </trkpt>
      <trkpt lat="44.55734" lon="1.27484">
        <ele>260</ele>
        <time>2016-03-03T23:57:11Z</time>
      </trkpt>
      <trkpt lat="44.55657" lon="1.27523">
        <ele>261</ele>
        <time>2016-03-03T23:59:11Z</time>
      </trkpt>
      <trkpt lat="44.55568" lon="1.27548">
        <ele>274</ele>
        <time>2016-03-04T00:01:11Z</time>
      </trkpt>
      <trkpt lat="44.55475" lon="1.27519">
        <ele>281</ele>
        <time>2016-03-04T00:03:11Z</time>
      </trkpt>
      <trkpt lat="44.55383" lon="1.2745">
        <ele>287</ele>
        <time>2016-03-04T00:05:11Z</time>
      </trkpt>
      <trkpt lat="44.55307" lon="1.27391">
        <ele>288</ele>
        <time>2016-03-04T00:07:11Z</time>
      </trkpt>
      <trkpt lat="44.55194" lon="1.27324">
        <ele>287</ele>
        <time>2016-03-04T00:09:11Z</time>
      </trkpt>
      <trkpt lat="44.55114" lon="1.27337">
        <ele>289</ele>
        <time>2016-03-04T00:11:11Z</time>
      </trkpt>
      <trkpt lat="44.551" lon="1.27359">
        <ele>287</ele>
        <time>2016-03-04T00:13:11Z</time>
      </trkpt>
      <trkpt lat="44.55064" lon="1.27341">
        <ele>291</ele>
        <time>2016-03-04T00:15:11Z</time>
      </trkpt>
      <trkpt lat="44.55001" lon="1.2734">
        <ele>294</ele>
        <time>2016-03-04T00:17:11Z</time>
      </trkpt>
      <trkpt lat="44.54934" lon="1.27269">
        <ele>301</ele>
        <time>2016-03-04T00:19:11Z</time>
      </trkpt>
      <trkpt lat="44.54895" lon="1.27243">
        <ele>301</ele>
        <time>2016-03-04T00:21:11Z</time>
      </trkpt>
      <trkpt lat="44.54827" lon="1.27267">
        <ele>302</ele>
        <time>2016-03-04T00:23:11Z</time>
      </trkpt>
      <trkpt lat="44.54659" lon="1.27387">
        <ele>297</ele>
        <time>2016-03-04T00:25:11Z</time>
      </trkpt>
      <trkpt lat="44.54613" lon="1.27411">
        <ele>293</ele>
        <time>2016-03-04T00:27:11Z</time>
      </trkpt>
      <trkpt lat="44.54662" lon="1.2751">
        <ele>289</ele>
        <time>2016-03-04T00:29:11Z</time>
      </trkpt>
      <trkpt lat="44.5467" lon="1.27559">
        <ele>284</ele>
        <time>2016-03-04T00:31:11Z</time>
      </trkpt>
      <trkpt lat="44.5465" lon="1.27678">
        <ele>285</ele>
        <time>2016-03-04T00:33:11Z</time>
      </trkpt>
      <trkpt lat="44.54685" lon="1.27823">
        <ele>282</ele>
        <time>2016-03-04T00:35:11Z</time>
      </trkpt>
      <trkpt lat="44.54707" lon="1.27981">
        <ele>274</ele>
        <time>2016-03-04T00:37:11Z</time>
      </trkpt>
      <trkpt lat="44.54699" lon="1.28156">
        <ele>267</ele>
        <time>2016-03-04T00:39:11Z</time>
      </trkpt>
      <trkpt lat="44.54719" lon="1.28265">
        <ele>252</ele>
        <time>2016-03-04T00:41:11Z</time>
      </trkpt>
      <trkpt lat="44.5482" lon="1.28407">
        <ele>235</ele>
        <time>2016-03-04T00:43:11Z</time>
      </trkpt>
      <trkpt lat="44.5487" lon="1.28476">
        <ele>225</ele>
        <time>2016-03-04T00:45:11Z</time>
      </trkpt>
      <trkpt lat="44.54866" lon="1.2852">
        <ele>221</ele>
        <time>2016-03-04T00:47:11Z</time>
      </trkpt>
      <trkpt lat="44.54842" lon="1.28528">
        <ele>220</ele>
        <time>2016-03-04T00:49:11Z</time>
      </trkpt>
      <trkpt lat="44.54888" lon="1.28559">
        <ele>218</ele>
        <time>2016-03-04T00:51:11Z</time>
      </trkpt>
      <trkpt lat="44.54921" lon="1.28551">
        <ele>219</ele>
        <time>2016-03-04T00:53:11Z</time>
      </trkpt>
      <trkpt lat="44.54991" lon="1.28473">
        <ele>218</ele>
        <time>2016-03-04T00:55:11Z</time>
      </trkpt>
      <trkpt lat="44.5503" lon="1.28476">
        <ele>220</ele>
        <time>2016-03-04T00:57:11Z</time>
      </trkpt>
      <trkpt lat="44.55033" lon="1.28675">
        <ele>209</ele>
        <time>2016-03-04T00:59:11Z</time>
      </trkpt>
      <trkpt lat="44.55055" lon="1.28841">
        <ele>203</ele>
        <time>2016-03-04T01:01:11Z</time>
      </trkpt>
      <trkpt lat="44.55068" lon="1.28994">
        <ele>182</ele>
        <time>2016-03-04T01:03:11Z</time>
      </trkpt>
      <trkpt lat="44.55056" lon="1.2905">
        <ele>172</ele>
        <time>2016-03-04T01:05:11Z</time>
      </trkpt>
      <trkpt lat="44.55101" lon="1.29072">
        <ele>172</ele>
        <time>2016-03-04T01:07:11Z</time>
      </trkpt>
      <trkpt lat="44.55143" lon="1.29123">
        <ele>172</ele>
        <time>2016-03-04T01:09:11Z</time>
      </trkpt>
      <trkpt lat="44.55202" lon="1.29137">
        <ele>173</ele>
        <time>2016-03-04T01:11:11Z</time>
      </trkpt>
      <trkpt lat="44.55256" lon="1.29171">
        <ele>174</ele>
        <time>2016-03-04T01:13:11Z</time>
      </trkpt>
      <trkpt lat="44.55365" lon="1.29212">
        <ele>177</ele>
        <time>2016-03-04T01:15:11Z</time>
      </trkpt>
      <trkpt lat="44.55427" lon="1.29289">
        <ele>179</ele>
        <time>2016-03-04T01:17:11Z</time>
      </trkpt>
      <trkpt lat="44.55478" lon="1.29313">
        <ele>180</ele>
        <time>2016-03-04T01:19:11Z</time>
      </trkpt>
      <trkpt lat="44.55532" lon="1.29248">
        <ele>182</ele>
        <time>2016-03-04T01:21:11Z</time>
      </trkpt>
      <trkpt lat="44.55571" lon="1.29192">
        <ele>183</ele>
        <time>2016-03-04T01:23:11Z</time>
      </trkpt>
      <trkpt lat="44.55617" lon="1.29171">
        <ele>182</ele>
        <time>2016-03-04T01:25:11Z</time>
      </trkpt>
      <trkpt lat="44.55669" lon="1.2918">
        <ele>185</ele>
        <time>2016-03-04T01:27:11Z</time>
      </trkpt>
      <trkpt lat="44.55723" lon="1.29167">
        <ele>185</ele>
        <time>2016-03-04T01:29:11Z</time>
      </trkpt>
      <trkpt lat="44.55763" lon="1.29136">
        <ele>186</ele>
        <time>2016-03-04T01:31:11Z</time>
      </trkpt>
      <trkpt lat="44.55858" lon="1.29111">
        <ele>190</ele>
        <time>2016-03-04T01:33:11Z</time>
      </trkpt>
      <trkpt lat="44.55885" lon="1.29139">
        <ele>199</ele>
        <time>2016-03-04T01:35:11Z</time>
      </trkpt>
      <trkpt lat="44.55843" lon="1.29216">
        <ele>211</ele>
        <time>2016-03-04T01:37:11Z</time>
      </trkpt>
      <trkpt lat="44.55793" lon="1.29427">
        <ele>244</ele>
        <time>2016-03-04T01:39:11Z</time>
      </trkpt>
      <trkpt lat="44.55837" lon="1.29474">
        <ele>252</ele>
        <time>2016-03-04T01:41:11Z</time>
      </trkpt>
      <trkpt lat="44.5593" lon="1.29535">
        <ele>252</ele>
        <time>2016-03-04T01:43:11Z</time>
      </trkpt>
      <trkpt lat="44.55946" lon="1.2959">
        <ele>251</ele>
        <time>2016-03-04T01:45:11Z</time>
      </trkpt>
      <trkpt lat="44.55933" lon="1.29703">
        <ele>248</ele>
        <time>2016-03-04T01:47:11Z</time>
      </trkpt>
      <trkpt lat="44.55953" lon="1.29769">
        <ele>245</ele>
        <time>2016-03-04T01:49:11Z</time>
      </trkpt>
      <trkpt lat="44.561" lon="1.29729">
        <ele>232</ele>
        <time>2016-03-04T01:51:11Z</time>
      </trkpt>
      <trkpt lat="44.56327" lon="1.29603">
        <ele>201</ele>
        <time>2016-03-04T01:53:11Z</time>
      </trkpt>
      <trkpt lat="44.56376" lon="1.29699">
        <ele>206</ele>
        <time>2016-03-04T01:55:11Z</time>
      </trkpt>
      <trkpt lat="44.5641" lon="1.29705">
        <ele>202</ele>
        <time>2016-03-04T01:57:11Z</time>
      </trkpt>
      <trkpt lat="44.56443" lon="1.29718">
        <ele>204</ele>
        <time>2016-03-04T01:59:11Z</time>
      </trkpt>
      <trkpt lat="44.56535" lon="1.29667">
        <ele>211</ele>
        <time>2016-03-04T02:01:11Z</time>
      </trkpt>
      <trkpt lat="44.56613" lon="1.29662">
        <ele>219</ele>
        <time>2016-03-04T02:03:11Z</time>
      </trkpt>
      <trkpt lat="44.56686" lon="1.29655">
        <ele>224</ele>
        <time>2016-03-04T02:05:11Z</time>
      </trkpt>
      <trkpt lat="44.56694" lon="1.29744">
        <ele>222</ele>
        <time>2016-03-04T02:07:11Z</time>
      </trkpt>
      <trkpt lat="44.56717" lon="1.29811">
        <ele>224</ele>
        <time>2016-03-04T02:09:11Z</time>
      </trkpt>
      <trkpt lat="44.56734" lon="1.29865">
        <ele>227</ele>
        <time>2016-03-04T02:11:11Z</time>
      </trkpt>
      <trkpt lat="44.56819" lon="1.29951">
        <ele>236</ele>
        <time>2016-03-04T02:13:11Z</time>
      </trkpt>
      <trkpt lat="44.5686" lon="1.30012">
        <ele>240</ele>
        <time>2016-03-04T02:15:11Z</time>
      </trkpt>
      <trkpt lat="44.56876" lon="1.30096">
        <ele>243</ele>
        <time>2016-03-04T02:17:11Z</time>
      </trkpt>
      <trkpt lat="44.56939" lon="1.30233">
        <ele>249</ele>
        <time>2016-03-04T02:19:11Z</time>
      </trkpt>
      <trkpt lat="44.57017" lon="1.30133">
        <ele>253</ele>
        <time>2016-03-04T02:21:11Z</time>
      </trkpt>
      <trkpt lat="44.57092" lon="1.29984">
        <ele>257</ele>
        <time>2016-03-04T02:23:11Z</time>
      </trkpt>
      <trkpt lat="44.57137" lon="1.2995">
        <ele>253</ele>
        <time>2016-03-04T02:25:11Z</time>
      </trkpt>
      <trkpt lat="44.57201" lon="1.29931">
        <ele>250</ele>
        <time>2016-03-04T02:27:11Z</time>
      </trkpt>
      <trkpt lat="44.57257" lon="1.29938">
        <ele>249</ele>
        <time>2016-03-04T02:29:11Z</time>
      </trkpt>
      <trkpt lat="44.57285" lon="1.29939">
        <ele>251</ele>
        <time>2016-03-04T02:31:11Z</time>
      </trkpt>
      <trkpt lat="44.57294" lon="1.29876">
        <ele>250</ele>
        <time>2016-03-04T02:33:11Z</time>
      </trkpt>
      <trkpt lat="44.57308" lon="1.29825">
        <ele>252</ele>
        <time>2016-03-04T02:35:11Z</time>
      </trkpt>
      <trkpt lat="44.57392" lon="1.29724">
        <ele>256</ele>
        <time>2016-03-04T02:37:11Z</time>
      </trkpt>
      <trkpt lat="44.57475" lon="1.29701">
        <ele>261</ele>
        <time>2016-03-04T02:39:11Z</time>
      </trkpt>
      <trkpt lat="44.57546" lon="1.29661">
        <ele>264</ele>
        <time>2016-03-04T02:41:11Z</time>
      </trkpt>
      <trkpt lat="44.57688" lon="1.29527">
        <ele>265</ele>
        <time>2016-03-04T02:43:11Z</time>
      </trkpt>
      <trkpt lat="44.57789" lon="1.29448">
        <ele>271</ele>
        <time>2016-03-04T02:45:11Z</time>
      </trkpt>
      <trkpt lat="44.57834" lon="1.29519">
        <ele>278</ele>
        <time>2016-03-04T02:47:11Z</time>
      </trkpt>
      <trkpt lat="44.579" lon="1.29592">
        <ele>285</ele>
        <time>2016-03-04T02:49:11Z</time>
      </trkpt>
      <trkpt lat="44.57948" lon="1.29622">
        <ele>286</ele>
        <time>2016-03-04T02:51:11Z</time>
      </trkpt>
    </trkseg>
  </trk>
</gpx>